Terminal Aerodrome Forecast
Issued by NWS

Home | Current Version | Previous Version | Text Only | Print | Product List | Glossary On
Versions: 1 2 3 4 5 6 7 8 9 10 11 12 13
000
FTUS45 KTFX 011100
TAFHLN
TAF
KHLN 011131Z 0112/0212 VRB03KT P6SM VCSH OVC070
     FM011400 VRB03KT P6SM SCT060 BKN110
     FM012000 20007KT P6SM BKN090
     FM020200 25007KT P6SM VCSH SCT030 OVC050=

USA.gov is the U.S. government's official web portal to all federal, state and local government web resources and services.